createdAt,value
2023-04-10T00:03:31.946Z,15.55
2023-04-10T00:08:35.120Z,15.30
2023-04-10T00:13:38.220Z,14.95
2023-04-10T00:18:42.636Z,14.00
2023-04-10T00:23:45.797Z,14.15
2023-04-10T00:28:48.904Z,13.07
2023-04-10T00:33:53.563Z,12.77
2023-04-10T00:38:56.959Z,11.77
2023-04-10T00:44:00.283Z,11.63
2023-04-10T00:49:05.337Z,12.35
2023-04-10T00:54:10.378Z,10.40
2023-04-10T00:59:13.572Z,10.38
2023-04-10T01:04:18.620Z,10.80
2023-04-10T01:09:28.292Z,10.07
2023-04-10T01:14:34.275Z,10.52
2023-04-10T01:19:48.206Z,10.85
2023-04-10T01:24:57.687Z,10.63
2023-04-10T01:30:02.689Z,10.13
2023-04-10T01:35:08.430Z,9.68
2023-04-10T01:40:14.894Z,9.88
2023-04-10T01:45:21.876Z,10.15
2023-04-10T01:50:28.735Z,10.35
2023-04-10T01:55:32.912Z,10.43
2023-04-10T02:00:42.986Z,9.50
2023-04-10T02:05:50.678Z,9.27
2023-04-10T02:10:56.519Z,9.55
2023-04-10T02:16:03.987Z,9.80
2023-04-10T02:21:07.899Z,9.55
2023-04-10T02:26:11.005Z,9.82
2023-04-10T02:31:15.723Z,11.07
2023-04-10T02:36:18.879Z,10.32
2023-04-10T02:41:22.365Z,9.65
2023-04-10T02:46:27.053Z,9.88
2023-04-10T02:51:30.974Z,10.68
2023-04-10T02:56:34.833Z,10.45
2023-04-10T03:01:40.869Z,11.88
2023-04-10T03:06:44.264Z,10.45
2023-04-10T03:11:47.309Z,11.00
2023-04-10T03:16:51.815Z,10.57
2023-04-10T03:21:54.888Z,10.75
2023-04-10T03:26:58.639Z,10.35
2023-04-10T03:32:03.302Z,11.00
2023-04-10T03:37:06.922Z,11.52
2023-04-10T03:42:10.041Z,11.10
2023-04-10T03:47:15.296Z,10.85
2023-04-10T03:52:24.218Z,8.17
2023-04-10T03:57:27.625Z,11.43
2023-04-10T04:02:38.785Z,11.77
2023-04-10T04:07:42.904Z,12.25
2023-04-10T04:13:04.473Z,12.93
2023-04-10T04:18:18.289Z,13.05
2023-04-10T04:23:25.787Z,12.60
2023-04-10T04:28:48.152Z,12.07
2023-04-10T04:34:18.434Z,12.00
2023-04-10T04:39:42.914Z,12.05
2023-04-10T04:45:01.110Z,12.48
2023-04-10T04:50:25.794Z,11.65
2023-04-10T04:55:48.876Z,11.85
2023-04-10T05:01:08.727Z,12.23
2023-04-10T05:06:42.488Z,11.90
2023-04-10T05:12:04.279Z,12.30
2023-04-10T05:17:30.157Z,12.13
2023-04-10T05:22:53.074Z,12.52
2023-04-10T05:28:12.578Z,11.65
2023-04-10T05:33:34.165Z,11.88
2023-04-10T05:39:00.018Z,12.60
2023-04-10T05:44:29.266Z,12.63
2023-04-10T05:49:41.984Z,11.43
2023-04-10T05:54:47.030Z,12.30
2023-04-10T05:59:50.102Z,12.52
2023-04-10T06:05:02.045Z,12.55
2023-04-10T06:10:11.568Z,12.45
2023-04-10T06:15:14.977Z,12.48
2023-04-10T06:20:19.096Z,12.93
2023-04-10T06:25:23.526Z,11.90
2023-04-10T06:30:26.649Z,12.18
2023-04-10T06:35:29.899Z,12.10
2023-04-10T06:40:34.460Z,12.43
2023-04-10T06:45:37.587Z,12.00
2023-04-10T06:50:40.748Z,12.43
2023-04-10T06:55:45.247Z,20.27
2023-04-10T07:00:48.409Z,12.63
2023-04-10T07:05:51.519Z,12.02
2023-04-10T07:10:58.289Z,12.10
2023-04-10T07:16:01.848Z,11.40
2023-04-10T07:21:09.421Z,11.30
2023-04-10T07:26:14.075Z,10.63
2023-04-10T07:31:18.044Z,10.02
2023-04-10T07:36:21.141Z,9.27
2023-04-10T07:41:25.608Z,9.60
2023-04-10T07:46:28.822Z,9.65
2023-04-10T07:51:31.952Z,9.68
2023-04-10T07:56:36.516Z,9.00
2023-04-10T08:01:39.647Z,8.07
2023-04-10T08:06:42.822Z,17.00
2023-04-10T08:11:47.735Z,10.07
2023-04-10T08:16:50.896Z,8.70
2023-04-10T08:21:53.961Z,8.18
2023-04-10T08:26:58.415Z,8.27
2023-04-10T08:32:01.478Z,8.27
2023-04-10T08:37:06.387Z,7.20
2023-04-10T08:42:10.896Z,8.30
2023-04-10T08:47:14.550Z,7.72
2023-04-10T08:52:21.852Z,8.02
2023-04-10T08:57:27.329Z,19.23
2023-04-10T09:02:30.528Z,8.93
2023-04-10T09:07:33.827Z,8.07
2023-04-10T09:12:47.534Z,7.68
2023-04-10T09:17:57.552Z,8.43
2023-04-10T09:23:01.740Z,6.88
2023-04-10T09:28:07.101Z,7.75
2023-04-10T09:33:22.232Z,7.35
2023-04-10T09:38:25.900Z,30.17
2023-04-10T09:43:30.462Z,8.57
2023-04-10T09:48:33.576Z,7.50
2023-04-10T09:53:49.001Z,7.22
2023-04-10T09:58:54.844Z,6.55
2023-04-10T10:04:01.840Z,6.18
2023-04-10T10:09:05.740Z,7.38
2023-04-10T10:14:12.980Z,6.78
2023-04-10T10:19:20.590Z,6.88
2023-04-10T10:24:26.203Z,6.65
2023-04-10T10:29:33.124Z,5.60
2023-04-10T10:34:36.728Z,6.55
2023-04-10T10:39:45.955Z,6.65
2023-04-10T10:44:52.136Z,5.95
2023-04-10T10:49:56.515Z,6.20
2023-04-10T10:55:00.798Z,9.25
2023-04-10T11:00:06.155Z,5.72
2023-04-10T11:05:09.318Z,6.03
2023-04-10T11:10:12.468Z,5.57
2023-04-10T11:15:23.790Z,5.82
2023-04-10T11:20:28.566Z,5.05
2023-04-10T11:25:46.525Z,5.32
2023-04-10T11:30:50.976Z,4.68
2023-04-10T11:35:54.223Z,4.82
2023-04-10T11:40:58.521Z,5.80
2023-04-10T11:46:04.366Z,4.55
2023-04-10T11:51:08.658Z,5.00
2023-04-10T11:56:18.811Z,5.35
2023-04-10T12:01:23.821Z,5.43
2023-04-10T12:06:27.631Z,4.88
2023-04-10T12:11:30.718Z,5.22
2023-04-10T12:16:35.284Z,4.38
2023-04-10T12:21:38.670Z,4.45
2023-04-10T12:26:48.322Z,4.25
2023-04-10T12:31:52.804Z,3.97
2023-04-10T12:36:56.177Z,3.65
2023-04-10T12:42:11.694Z,3.42
2023-04-10T12:47:16.184Z,3.63
2023-04-10T12:52:23.774Z,3.28
2023-04-10T12:57:27.382Z,3.38
2023-04-10T13:02:31.987Z,6.95
2023-04-10T13:07:35.150Z,3.50
2023-04-10T13:12:39.175Z,3.33
2023-04-10T13:17:43.801Z,3.30
2023-04-10T13:22:46.912Z,3.53
2023-04-10T13:27:49.957Z,3.20
2023-04-10T13:32:54.672Z,3.40
2023-04-10T13:37:57.774Z,3.15
2023-04-10T13:43:00.881Z,3.03
2023-04-10T13:48:07.311Z,3.45
2023-04-10T13:53:10.732Z,3.15
2023-04-10T13:58:13.960Z,3.28
2023-04-10T14:03:18.456Z,3.30
2023-04-10T14:08:21.606Z,3.22
2023-04-10T14:13:24.735Z,4.50
2023-04-10T14:18:29.263Z,6.05
2023-04-10T14:23:32.343Z,3.05
2023-04-10T14:28:35.753Z,2.80
2023-04-10T14:33:40.198Z,2.80
2023-04-10T14:38:43.265Z,2.92
2023-04-10T14:43:46.347Z,2.90
2023-04-10T14:48:50.915Z,2.53
2023-04-10T14:53:54.281Z,3.03
2023-04-10T14:58:57.489Z,3.05
2023-04-10T15:04:02.238Z,3.33
2023-04-10T15:09:05.690Z,4.80
2023-04-10T15:14:08.815Z,3.10
2023-04-10T15:19:13.299Z,2.92
2023-04-10T15:24:16.443Z,3.13
2023-04-10T15:29:19.613Z,3.00
2023-04-10T15:34:24.045Z,3.30
2023-04-10T15:39:27.178Z,3.30
2023-04-10T15:44:30.290Z,2.97
2023-04-10T15:49:38.350Z,3.72
2023-04-10T15:54:42.397Z,3.30
2023-04-10T15:59:45.543Z,3.65
2023-04-10T16:04:50.175Z,3.50
2023-04-10T16:09:55.145Z,3.30
2023-04-10T16:14:58.339Z,3.10
2023-04-10T16:20:05.467Z,3.25
2023-04-10T16:25:09.048Z,5.72
2023-04-10T16:30:13.145Z,3.45
2023-04-10T16:35:19.093Z,2.92
2023-04-10T16:40:22.488Z,2.78
2023-04-10T16:45:25.585Z,3.50
2023-04-10T16:50:30.058Z,3.42
2023-04-10T16:55:33.127Z,3.20
2023-04-10T17:00:36.463Z,3.47
2023-04-10T17:05:40.953Z,2.95
2023-04-10T17:10:44.056Z,3.67
2023-04-10T17:15:47.182Z,4.72
2023-04-10T17:20:51.621Z,4.57
2023-04-10T17:25:54.745Z,5.78
2023-04-10T17:30:57.970Z,6.05
2023-04-10T17:36:02.435Z,4.88
2023-04-10T17:41:05.860Z,4.57
2023-04-10T17:46:08.941Z,4.72
2023-04-10T17:51:13.401Z,5.07
2023-04-10T17:56:20.831Z,4.80
2023-04-10T18:01:24.332Z,5.93
2023-04-10T18:06:28.947Z,4.28
2023-04-10T18:11:32.013Z,3.70
2023-04-10T18:16:35.140Z,3.33
2023-04-10T18:21:41.925Z,3.10
2023-04-10T18:26:45.251Z,3.15
2023-04-10T18:31:48.547Z,2.65
2023-04-10T18:36:54.024Z,2.83
2023-04-10T18:41:58.055Z,2.55
2023-04-10T18:47:04.516Z,3.17
2023-04-10T18:52:09.649Z,3.03
2023-04-10T18:57:13.923Z,3.58
2023-04-10T19:02:17.296Z,3.78
2023-04-10T19:07:22.054Z,3.83
2023-04-10T19:12:25.191Z,4.28
2023-04-10T19:17:28.459Z,6.53
2023-04-10T19:22:34.842Z,4.03
2023-04-10T19:27:38.014Z,4.10
2023-04-10T19:32:42.057Z,3.90
2023-04-10T19:37:46.582Z,3.95
2023-04-10T19:42:49.670Z,3.33
2023-04-10T19:47:53.095Z,3.00
2023-04-10T19:52:57.625Z,3.15
2023-04-10T19:58:00.821Z,3.05
2023-04-10T20:03:04.127Z,2.63
2023-04-10T20:08:08.821Z,2.80
2023-04-10T20:13:11.923Z,2.58
2023-04-10T20:18:15.840Z,2.50
2023-04-10T20:23:20.421Z,2.45
2023-04-10T20:28:23.569Z,2.72
2023-04-10T20:33:26.742Z,2.15
2023-04-10T20:38:31.253Z,1.70
2023-04-10T20:43:34.328Z,2.50
2023-04-10T20:48:38.406Z,2.92
2023-04-10T20:53:42.939Z,2.10
2023-04-10T20:58:46.064Z,2.70
2023-04-10T21:03:49.239Z,2.65
2023-04-10T21:08:54.033Z,2.55
2023-04-10T21:13:58.439Z,2.28
2023-04-10T21:19:01.484Z,2.00
2023-04-10T21:24:06.339Z,2.38
2023-04-10T21:29:09.562Z,2.65
2023-04-10T21:34:12.695Z,2.67
2023-04-10T21:39:17.164Z,3.28
2023-04-10T21:44:21.107Z,3.33
2023-04-10T21:49:24.238Z,3.92
2023-04-10T21:54:30.977Z,2.85
2023-04-10T21:59:34.048Z,3.55
2023-04-10T22:04:41.638Z,3.20
2023-04-10T22:09:56.240Z,3.10
2023-04-10T22:14:59.411Z,2.90
2023-04-10T22:20:02.660Z,3.97
2023-04-10T22:25:07.548Z,3.80
2023-04-10T22:30:11.293Z,3.88
2023-04-10T22:35:14.570Z,3.25
2023-04-10T22:40:19.209Z,3.63
2023-04-10T22:45:22.380Z,5.25
2023-04-10T22:50:25.510Z,5.40
2023-04-10T22:55:29.941Z,4.57
2023-04-10T23:00:33.766Z,5.70
2023-04-10T23:05:36.847Z,4.95
2023-04-10T23:10:41.306Z,4.13
2023-04-10T23:15:49.187Z,4.85
2023-04-10T23:20:52.351Z,5.68
2023-04-10T23:25:59.428Z,4.93
2023-04-10T23:31:02.562Z,4.30
2023-04-10T23:36:06.145Z,2.22
2023-04-10T23:41:10.740Z,3.58
2023-04-10T23:46:13.960Z,3.33
2023-04-10T23:51:17.072Z,4.78
2023-04-10T23:56:27.996Z,5.10
